Time;durP1;ratioP1;P1;durP2;ratioP2;P2;SDS_P1;SDS_P2;PMS_P1;PMS_P2;Temp;Humidity;BMP_temperature;BMP_pressure;BME280_temperature;BME280_humidity;BME280_pressure;Samples;Min_cycle;Max_cycle;Signal;HPM_P1;HPM_P2
2023/10/22 00:02:09;;;;;;;8.85;1.70;;;12.60;99.90;;;;;;5035818;28;20056;-68
2023/10/22 00:04:35;;;;;;;4.97;1.52;;;12.60;99.90;;;;;;5035204;28;20390;-67
2023/10/22 00:07:00;;;;;;;7.03;1.50;;;12.60;99.90;;;;;;5019672;28;20041;-67
2023/10/22 00:09:26;;;;;;;7.03;1.65;;;12.60;99.90;;;;;;5052884;28;20049;-67
2023/10/22 00:11:51;;;;;;;6.32;1.25;;;12.60;99.90;;;;;;5040037;28;20038;-67
2023/10/22 00:14:17;;;;;;;4.47;1.52;;;12.60;99.90;;;;;;5016189;28;20042;-67
2023/10/22 00:16:43;;;;;;;6.78;1.60;;;12.60;99.90;;;;;;5032855;28;20033;-67
2023/10/22 00:19:09;;;;;;;11.05;2.28;;;12.60;99.90;;;;;;5016056;28;20167;-67
2023/10/22 00:21:34;;;;;;;4.38;1.10;;;12.60;99.90;;;;;;5015518;28;20128;-67
2023/10/22 00:24:00;;;;;;;3.72;1.10;;;12.60;99.90;;;;;;5015406;28;20077;-67
2023/10/22 00:26:26;;;;;;;5.55;1.55;;;12.70;99.90;;;;;;5016861;28;20045;-67
2023/10/22 00:28:51;;;;;;;7.40;1.42;;;12.70;99.90;;;;;;5015241;28;20077;-67
2023/10/22 00:31:17;;;;;;;4.18;1.45;;;12.70;99.90;;;;;;5015671;28;20040;-67
2023/10/22 00:33:43;;;;;;;8.15;1.98;;;12.70;99.90;;;;;;4999173;28;20045;-67
2023/10/22 00:36:09;;;;;;;4.95;1.50;;;12.70;99.90;;;;;;5015189;28;20038;-67
2023/10/22 00:38:34;;;;;;;3.97;1.13;;;12.70;99.90;;;;;;5015120;28;20048;-67
2023/10/22 00:41:00;;;;;;;5.10;1.00;;;12.70;99.90;;;;;;5015968;28;20041;-67
2023/10/22 00:43:26;;;;;;;4.25;1.42;;;12.60;99.90;;;;;;5014779;28;20128;-67
2023/10/22 00:45:52;;;;;;;8.15;1.58;;;12.60;99.90;;;;;;5015398;28;20053;-67
2023/10/22 00:48:20;;;;;;;3.35;1.00;;;12.60;99.90;;;;;;5015726;28;20049;-67
2023/10/22 00:50:46;;;;;;;5.13;1.65;;;12.60;99.90;;;;;;5047409;28;20053;-67
2023/10/22 00:53:15;;;;;;;3.78;1.50;;;12.60;99.90;;;;;;5015137;28;20046;-67
2023/10/22 00:55:44;;;;;;;5.43;1.27;;;12.60;99.90;;;;;;5032737;28;20075;-67
2023/10/22 00:58:20;;;;;;;5.13;1.10;;;12.60;99.90;;;;;;5014998;28;20493;-67
2023/10/22 01:00:46;;;;;;;4.40;1.45;;;12.70;99.90;;;;;;5032548;28;20167;-67
2023/10/22 01:03:12;;;;;;;6.95;2.08;;;12.70;99.90;;;;;;5015602;28;20080;-67
2023/10/22 01:05:38;;;;;;;4.15;0.90;;;12.70;99.90;;;;;;5014218;28;20084;-67
2023/10/22 01:08:07;;;;;;;4.03;1.17;;;12.70;99.90;;;;;;5015845;28;20502;-67
2023/10/22 01:10:33;;;;;;;5.43;1.25;;;12.70;99.90;;;;;;5032722;28;20044;-67
2023/10/22 01:13:00;;;;;;;7.53;1.10;;;12.70;99.90;;;;;;5019821;28;20047;-67
2023/10/22 01:15:26;;;;;;;5.35;1.20;;;12.70;99.90;;;;;;5033297;28;20071;-67
2023/10/22 01:17:51;;;;;;;4.55;1.00;;;12.60;99.90;;;;;;5018385;28;20089;-67
2023/10/22 01:20:17;;;;;;;5.47;1.40;;;12.60;99.90;;;;;;5034040;28;20037;-67
2023/10/22 01:22:43;;;;;;;5.78;1.48;;;12.50;99.90;;;;;;5052262;28;20053;-67
2023/10/22 01:25:09;;;;;;;5.25;1.40;;;12.50;99.90;;;;;;5034381;28;20049;-67
2023/10/22 01:27:35;;;;;;;5.78;1.30;;;12.40;99.90;;;;;;5022546;28;20045;-67
2023/10/22 01:30:01;;;;;;;4.18;1.20;;;12.40;99.90;;;;;;5015021;28;20049;-66
2023/10/22 01:32:30;;;;;;;4.50;1.45;;;12.30;99.90;;;;;;5013838;28;20053;-67
2023/10/22 01:35:01;;;;;;;4.60;1.38;;;12.20;99.90;;;;;;4998213;28;20112;-66
2023/10/22 01:37:27;;;;;;;5.60;1.50;;;12.10;99.90;;;;;;5032289;28;20043;-66
2023/10/22 01:39:54;;;;;;;4.88;1.45;;;12.10;99.90;;;;;;5031242;28;20127;-66
2023/10/22 01:42:20;;;;;;;4.78;1.30;;;12.00;99.90;;;;;;5014909;28;20046;-66
2023/10/22 01:44:45;;;;;;;7.15;1.83;;;12.00;99.90;;;;;;5047192;28;20041;-66
2023/10/22 01:47:11;;;;;;;5.97;1.63;;;11.90;99.90;;;;;;5014103;28;20125;-67
2023/10/22 01:49:38;;;;;;;3.67;1.40;;;11.90;99.90;;;;;;5031588;28;20084;-67
2023/10/22 01:52:04;;;;;;;5.07;1.67;;;11.90;99.90;;;;;;5033228;28;20124;-67
2023/10/22 01:54:29;;;;;;;8.32;1.73;;;11.90;99.90;;;;;;5029938;28;20045;-67
2023/10/22 01:56:55;;;;;;;4.40;1.48;;;11.80;99.90;;;;;;5032036;28;20069;-67
2023/10/22 01:59:21;;;;;;;6.43;1.75;;;11.70;99.90;;;;;;5032562;28;20091;-67
2023/10/22 02:01:46;;;;;;;6.30;1.73;;;11.80;99.90;;;;;;5030740;28;20033;-67
2023/10/22 02:04:12;;;;;;;6.70;1.75;;;11.80;99.90;;;;;;4998436;28;20048;-67
2023/10/22 02:06:38;;;;;;;7.30;2.53;;;11.80;99.90;;;;;;4997869;28;20066;-67
2023/10/22 02:09:03;;;;;;;4.50;1.70;;;11.70;99.90;;;;;;5014081;28;20372;-67
2023/10/22 02:11:30;;;;;;;5.00;1.60;;;11.70;99.90;;;;;;5014887;28;20470;-67
2023/10/22 02:13:56;;;;;;;5.68;1.92;;;11.70;99.90;;;;;;5014252;28;20042;-67
2023/10/22 02:16:22;;;;;;;5.13;1.42;;;11.70;99.90;;;;;;5013489;28;20087;-67
2023/10/22 02:18:48;;;;;;;3.92;1.63;;;11.70;99.90;;;;;;5047148;28;20113;-67
2023/10/22 02:21:15;;;;;;;4.90;1.92;;;11.70;99.90;;;;;;5032241;28;20411;-67
2023/10/22 02:23:41;;;;;;;5.60;1.67;;;11.60;99.90;;;;;;5046101;28;20124;-66
2023/10/22 02:26:07;;;;;;;5.78;1.80;;;11.70;99.90;;;;;;5025214;28;20520;-67
2023/10/22 02:28:33;;;;;;;3.15;1.20;;;11.60;99.90;;;;;;5033361;28;20405;-66
2023/10/22 02:30:59;;;;;;;5.13;1.30;;;11.70;99.90;;;;;;5033869;28;20045;-66
2023/10/22 02:33:25;;;;;;;6.45;1.85;;;11.60;99.90;;;;;;5033624;28;20130;-66
2023/10/22 02:35:51;;;;;;;3.55;1.25;;;11.70;99.90;;;;;;5017071;28;20045;-66
2023/10/22 02:38:18;;;;;;;4.38;1.33;;;11.70;99.90;;;;;;5051736;28;20036;-67
2023/10/22 02:40:48;;;;;;;5.50;1.75;;;11.60;99.90;;;;;;5030816;28;20076;-66
2023/10/22 02:43:14;;;;;;;3.55;1.30;;;11.70;99.90;;;;;;5046613;28;20045;-67
2023/10/22 02:45:52;;;;;;;5.72;1.60;;;11.70;99.90;;;;;;5031111;28;20041;-66
2023/10/22 02:48:18;;;;;;;3.47;1.38;;;11.70;99.90;;;;;;5014138;28;20478;-66
2023/10/22 02:50:44;;;;;;;5.63;1.67;;;11.70;99.90;;;;;;5014050;28;20068;-67
2023/10/22 02:53:10;;;;;;;5.72;1.80;;;11.60;99.90;;;;;;5017881;28;20045;-67
2023/10/22 02:55:36;;;;;;;5.85;1.60;;;11.70;99.90;;;;;;5017407;28;20057;-67
2023/10/22 02:58:02;;;;;;;5.38;2.08;;;11.70;99.90;;;;;;5016974;28;20037;-67
2023/10/22 03:00:28;;;;;;;5.00;1.67;;;11.70;99.90;;;;;;5017236;28;20120;-67
2023/10/22 03:02:53;;;;;;;6.75;1.83;;;11.70;99.90;;;;;;5017609;28;20072;-67
2023/10/22 03:05:19;;;;;;;4.88;1.60;;;11.70;99.90;;;;;;5000822;28;20467;-67
2023/10/22 03:07:45;;;;;;;4.03;1.50;;;11.80;99.90;;;;;;5017364;28;20041;-67
2023/10/22 03:10:10;;;;;;;5.13;1.60;;;11.70;99.90;;;;;;5017829;28;20502;-67
2023/10/22 03:12:36;;;;;;;4.25;1.52;;;11.70;99.90;;;;;;5033757;28;20477;-67
2023/10/22 03:15:03;;;;;;;6.25;2.38;;;11.70;99.90;;;;;;5017475;28;20049;-66
2023/10/22 03:17:30;;;;;;;4.50;1.65;;;11.80;99.90;;;;;;5017100;28;20437;-67
2023/10/22 03:19:56;;;;;;;4.22;2.15;;;11.70;99.90;;;;;;5016639;28;20041;-67
2023/10/22 03:22:21;;;;;;;4.22;1.55;;;11.80;99.90;;;;;;5035082;28;20064;-67
2023/10/22 03:24:51;;;;;;;5.22;1.85;;;11.70;99.90;;;;;;5045688;28;20112;-67
2023/10/22 03:27:17;;;;;;;3.67;1.65;;;11.80;99.90;;;;;;5036841;28;20073;-66
2023/10/22 03:29:43;;;;;;;5.65;1.90;;;11.70;99.90;;;;;;5036483;28;20057;-66
2023/10/22 03:32:09;;;;;;;5.22;1.80;;;11.80;99.90;;;;;;5036469;28;20049;-66
2023/10/22 03:34:36;;;;;;;4.40;1.95;;;11.80;99.90;;;;;;5019896;28;20378;-66
2023/10/22 03:37:04;;;;;;;4.10;1.50;;;11.80;99.90;;;;;;5054762;28;20032;-66
2023/10/22 03:39:33;;;;;;;5.07;1.67;;;11.80;99.90;;;;;;5035608;28;20489;-67
2023/10/22 03:41:59;;;;;;;4.50;1.60;;;11.80;99.90;;;;;;5035954;28;20402;-67
2023/10/22 03:44:25;;;;;;;5.10;2.03;;;11.80;99.90;;;;;;5036181;28;20470;-66
2023/10/22 03:46:50;;;;;;;6.50;2.00;;;11.70;99.90;;;;;;5053930;28;20037;-66
2023/10/22 03:49:16;;;;;;;5.63;1.95;;;11.80;99.90;;;;;;5036877;28;20126;-67
2023/10/22 03:51:42;;;;;;;6.25;2.10;;;11.70;99.90;;;;;;5035935;28;20061;-67
2023/10/22 03:54:07;;;;;;;3.85;1.75;;;11.70;99.90;;;;;;5053008;28;20041;-66
2023/10/22 03:56:34;;;;;;;7.10;2.22;;;11.70;99.90;;;;;;5036092;28;20053;-67
2023/10/22 03:59:00;;;;;;;4.10;1.92;;;11.90;99.90;;;;;;5036616;28;20437;-66
2023/10/22 04:01:26;;;;;;;3.72;1.60;;;11.80;99.90;;;;;;5035160;28;20067;-67
2023/10/22 04:03:52;;;;;;;5.32;1.77;;;11.70;99.90;;;;;;5053607;28;20494;-67
2023/10/22 04:06:17;;;;;;;5.13;2.03;;;11.70;99.90;;;;;;5054083;28;20041;-66
2023/10/22 04:08:43;;;;;;;3.92;1.70;;;11.80;99.90;;;;;;5018136;28;20623;-67
2023/10/22 04:11:09;;;;;;;4.85;1.90;;;11.70;99.90;;;;;;5053780;28;20036;-67
2023/10/22 04:13:34;;;;;;;4.05;1.83;;;11.90;99.90;;;;;;5053485;28;20385;-66
2023/10/22 04:16:00;;;;;;;4.43;1.83;;;11.80;99.90;;;;;;5035516;28;20541;-67
2023/10/22 04:18:26;;;;;;;4.45;2.00;;;11.90;99.90;;;;;;5035482;28;20068;-67
2023/10/22 04:20:51;;;;;;;3.15;1.35;;;11.90;99.90;;;;;;5035840;28;20045;-67
2023/10/22 04:23:17;;;;;;;4.97;1.95;;;11.90;99.90;;;;;;5035406;28;20449;-67
2023/10/22 04:25:44;;;;;;;5.18;2.00;;;11.90;99.90;;;;;;5035219;28;20057;-67
2023/10/22 04:28:11;;;;;;;5.00;2.25;;;11.80;99.90;;;;;;5018981;28;20045;-67
2023/10/22 04:30:38;;;;;;;3.58;1.67;;;11.90;99.90;;;;;;5035111;28;20045;-67
2023/10/22 04:33:07;;;;;;;6.32;2.15;;;11.80;99.90;;;;;;5035908;28;20115;-67
2023/10/22 04:35:34;;;;;;;6.30;2.10;;;11.80;99.90;;;;;;5034960;28;20076;-67
2023/10/22 04:38:01;;;;;;;5.82;2.80;;;11.80;99.90;;;;;;5053158;28;20044;-67
2023/10/22 04:40:32;;;;;;;7.38;2.65;;;11.80;99.90;;;;;;5035135;28;20370;-67
2023/10/22 04:42:57;;;;;;;6.13;2.33;;;11.80;99.90;;;;;;5035236;28;20080;-67
2023/10/22 04:45:23;;;;;;;5.97;3.08;;;11.90;99.90;;;;;;5053363;28;20453;-67
2023/10/22 04:47:49;;;;;;;6.90;3.58;;;11.90;99.90;;;;;;5035478;28;20041;-67
2023/10/22 04:50:15;;;;;;;7.82;3.95;;;12.00;99.90;;;;;;5034440;28;20052;-67
2023/10/22 04:52:40;;;;;;;6.50;3.70;;;11.90;99.90;;;;;;5034999;28;20092;-67
2023/10/22 04:55:07;;;;;;;9.35;5.07;;;12.00;99.90;;;;;;5053040;28;20490;-67
2023/10/22 04:57:34;;;;;;;10.02;5.95;;;12.10;99.90;;;;;;5051818;28;20124;-67
2023/10/22 05:00:00;;;;;;;10.68;5.93;;;12.10;99.90;;;;;;5035445;28;20098;-67
2023/10/22 05:02:25;;;;;;;9.82;5.78;;;12.00;99.90;;;;;;5034840;28;20095;-67
2023/10/22 05:04:52;;;;;;;10.05;6.95;;;12.10;99.90;;;;;;5052094;28;20041;-67
2023/10/22 05:07:18;;;;;;;12.32;7.63;;;12.00;99.90;;;;;;5053000;28;20071;-68
2023/10/22 05:09:44;;;;;;;12.02;7.78;;;12.10;99.90;;;;;;5034021;28;20040;-67
2023/10/22 05:12:10;;;;;;;12.43;8.50;;;12.00;99.90;;;;;;5034443;28;20544;-67
2023/10/22 05:14:36;;;;;;;12.43;8.82;;;12.20;99.90;;;;;;5051385;28;20085;-67
2023/10/22 05:17:02;;;;;;;13.57;8.38;;;12.10;99.90;;;;;;5034874;28;20119;-67
2023/10/22 05:19:28;;;;;;;11.90;9.18;;;12.20;99.90;;;;;;5034009;28;20091;-67
2023/10/22 05:21:53;;;;;;;14.77;9.52;;;12.30;99.90;;;;;;5035015;28;20478;-67
2023/10/22 05:24:19;;;;;;;13.40;9.73;;;12.30;99.90;;;;;;5010881;28;20374;-67
2023/10/22 05:26:45;;;;;;;13.88;9.10;;;12.30;99.90;;;;;;5014463;28;20441;-67
2023/10/22 05:29:11;;;;;;;13.50;8.02;;;12.30;99.90;;;;;;5015063;28;20072;-67
2023/10/22 05:31:36;;;;;;;8.85;6.90;;;12.30;99.90;;;;;;5028392;28;20037;-67
2023/10/22 05:34:02;;;;;;;11.95;8.07;;;12.40;99.90;;;;;;5052427;28;20072;-67
2023/10/22 05:36:28;;;;;;;12.48;7.90;;;12.50;99.90;;;;;;5034313;28;20040;-67
2023/10/22 05:38:53;;;;;;;9.52;6.70;;;12.30;99.90;;;;;;5051492;28;20127;-66
2023/10/22 05:41:21;;;;;;;5.82;2.97;;;12.40;99.90;;;;;;5033727;28;20044;-64
2023/10/22 05:43:47;;;;;;;6.88;2.33;;;12.30;99.90;;;;;;5034122;28;20138;-64
2023/10/22 05:46:13;;;;;;;4.85;1.50;;;12.40;99.90;;;;;;5033816;28;20072;-65
2023/10/22 05:48:39;;;;;;;3.55;1.40;;;12.30;99.90;;;;;;5033906;28;20053;-64
2023/10/22 05:51:05;;;;;;;3.55;1.25;;;12.10;99.90;;;;;;5052359;28;20095;-64
2023/10/22 05:53:30;;;;;;;5.32;1.20;;;12.10;99.90;;;;;;5050418;28;20057;-65
2023/10/22 05:55:59;;;;;;;6.32;1.65;;;11.90;99.90;;;;;;5017944;28;20041;-64
2023/10/22 05:58:26;;;;;;;5.63;1.38;;;11.80;99.90;;;;;;5033992;28;20044;-64
2023/10/22 06:00:52;;;;;;;6.28;1.50;;;11.70;99.90;;;;;;5033405;28;20037;-64
2023/10/22 06:03:18;;;;;;;6.85;1.52;;;11.80;99.90;;;;;;5052113;28;20128;-64
2023/10/22 06:05:44;;;;;;;12.00;6.03;;;11.80;99.90;;;;;;5033802;28;20129;-64
2023/10/22 06:08:10;;;;;;;8.40;2.70;;;11.70;99.90;;;;;;5017983;28;20555;-64
2023/10/22 06:10:43;;;;;;;9.10;2.45;;;11.70;99.90;;;;;;5013802;28;20118;-64
2023/10/22 06:13:09;;;;;;;9.15;2.15;;;11.70;99.90;;;;;;5047698;28;20037;-64
2023/10/22 06:15:40;;;;;;;6.40;1.77;;;11.80;99.90;;;;;;5046431;28;20107;-64
2023/10/22 06:18:06;;;;;;;6.28;1.75;;;11.60;99.90;;;;;;5032306;28;20332;-64
2023/10/22 06:20:33;;;;;;;8.93;2.25;;;11.70;99.90;;;;;;5015312;28;20033;-64
2023/10/22 06:23:00;;;;;;;11.68;2.25;;;11.70;99.90;;;;;;5031111;28;20493;-64
2023/10/22 06:25:25;;;;;;;8.40;2.50;;;11.70;99.90;;;;;;5016250;28;20577;-64
2023/10/22 06:27:55;;;;;;;7.47;2.20;;;11.80;99.90;;;;;;5017628;28;20151;-64
2023/10/22 06:30:25;;;;;;;12.38;2.75;;;11.80;99.90;;;;;;5018065;28;20038;-64
2023/10/22 06:32:57;;;;;;;10.02;2.25;;;11.70;99.90;;;;;;5018083;28;20046;-64
2023/10/22 06:35:23;;;;;;;7.22;2.80;;;11.80;99.90;;;;;;5045383;28;20037;-63
2023/10/22 06:37:53;;;;;;;8.07;2.55;;;11.70;99.90;;;;;;5021062;28;20080;-63
2023/10/22 06:40:23;;;;;;;6.75;2.20;;;11.70;99.90;;;;;;5032404;28;20044;-63
2023/10/22 06:42:49;;;;;;;3.00;1.25;;;11.80;99.90;;;;;;5017020;28;20048;-64
2023/10/22 06:45:16;;;;;;;5.10;1.50;;;11.70;99.90;;;;;;5017790;28;20042;-65
2023/10/22 06:47:42;;;;;;;4.45;1.50;;;11.70;99.90;;;;;;5035101;28;20398;-64
2023/10/22 06:50:09;;;;;;;4.72;1.48;;;11.70;99.90;;;;;;5020309;28;20037;-65
2023/10/22 06:52:36;;;;;;;4.35;1.60;;;11.60;99.90;;;;;;5030676;28;20049;-65
2023/10/22 06:55:02;;;;;;;4.35;1.40;;;11.60;99.90;;;;;;5019303;28;20045;-65
2023/10/22 06:57:28;;;;;;;5.70;1.55;;;11.50;99.90;;;;;;5047706;28;20071;-65
2023/10/22 06:59:56;;;;;;;5.22;1.70;;;11.40;99.90;;;;;;5015163;28;20049;-65
2023/10/22 07:02:23;;;;;;;4.60;1.88;;;11.50;99.90;;;;;;5015264;28;20050;-65
2023/10/22 07:04:56;;;;;;;6.78;2.10;;;11.50;99.90;;;;;;5050184;28;20111;-65
2023/10/22 07:07:23;;;;;;;5.43;2.22;;;11.50;99.90;;;;;;5020288;28;20098;-65
2023/10/22 07:09:50;;;;;;;9.13;2.92;;;11.50;99.90;;;;;;5047969;28;20336;-65
2023/10/22 07:12:16;;;;;;;7.07;2.38;;;11.50;99.90;;;;;;5031255;28;20046;-65
2023/10/22 07:14:42;;;;;;;10.32;2.38;;;11.50;99.90;;;;;;5031813;28;20049;-65
2023/10/22 07:17:08;;;;;;;7.10;2.53;;;11.50;99.90;;;;;;5014382;28;20045;-65
2023/10/22 07:19:34;;;;;;;6.47;3.17;;;11.50;99.90;;;;;;5047016;28;20041;-65
2023/10/22 07:22:00;;;;;;;7.13;2.30;;;11.50;99.90;;;;;;5050754;28;20402;-65
2023/10/22 07:24:26;;;;;;;8.30;2.80;;;11.40;99.90;;;;;;5033335;28;20053;-65
2023/10/22 07:26:52;;;;;;;7.93;2.80;;;11.50;99.90;;;;;;5031256;28;20059;-65
2023/10/22 07:29:18;;;;;;;9.25;2.78;;;11.40;99.90;;;;;;5019291;28;20044;-65
2023/10/22 07:31:46;;;;;;;11.80;3.17;;;11.40;99.90;;;;;;5027858;28;20080;-65
2023/10/22 07:34:12;;;;;;;8.13;3.10;;;11.50;99.90;;;;;;5015235;28;20036;-65
2023/10/22 07:36:38;;;;;;;9.60;2.85;;;11.50;99.90;;;;;;5049889;28;20045;-65
2023/10/22 07:39:04;;;;;;;8.95;2.92;;;11.50;99.90;;;;;;5032529;28;21006;-65
2023/10/22 07:41:29;;;;;;;11.20;3.67;;;11.50;99.90;;;;;;5033142;28;20055;-65
2023/10/22 07:43:55;;;;;;;5.85;2.90;;;11.40;99.90;;;;;;5033499;28;20044;-66
2023/10/22 07:46:21;;;;;;;13.73;3.13;;;11.60;99.90;;;;;;5032914;28;20036;-66
2023/10/22 07:48:46;;;;;;;12.93;3.53;;;11.40;99.90;;;;;;5032740;28;20404;-65
2023/10/22 07:51:17;;;;;;;8.88;3.45;;;11.50;99.90;;;;;;5032326;28;20102;-66
2023/10/22 07:53:44;;;;;;;9.65;3.80;;;11.50;99.90;;;;;;5015866;28;20060;-66
2023/10/22 07:56:11;;;;;;;11.10;3.97;;;11.50;99.90;;;;;;5033625;28;20758;-66
2023/10/22 07:58:37;;;;;;;9.07;4.30;;;11.50;99.90;;;;;;5016528;28;20087;-65
2023/10/22 08:01:04;;;;;;;11.02;4.10;;;11.60;99.90;;;;;;5032807;28;20067;-66
2023/10/22 08:03:30;;;;;;;9.98;3.25;;;11.60;99.90;;;;;;5016138;28;20052;-65
2023/10/22 08:05:57;;;;;;;9.00;2.97;;;11.60;99.90;;;;;;5032634;28;20136;-65
2023/10/22 08:08:23;;;;;;;11.10;3.08;;;11.70;99.90;;;;;;5016693;28;20123;-66
2023/10/22 08:10:49;;;;;;;7.25;3.05;;;11.70;99.90;;;;;;5033125;28;20561;-65
2023/10/22 08:13:16;;;;;;;5.78;2.90;;;11.80;99.90;;;;;;5032653;28;20102;-65
2023/10/22 08:15:42;;;;;;;8.13;3.13;;;11.90;99.90;;;;;;5032007;28;20089;-65
2023/10/22 08:18:07;;;;;;;6.35;2.40;;;11.80;99.90;;;;;;5032958;28;20513;-65
2023/10/22 08:20:33;;;;;;;7.88;3.28;;;11.90;99.90;;;;;;5031393;28;20091;-65
2023/10/22 08:22:59;;;;;;;6.22;2.65;;;11.90;99.90;;;;;;5016211;28;20079;-65
2023/10/22 08:25:28;;;;;;;9.57;2.97;;;11.90;99.90;;;;;;5031054;28;20056;-65
2023/10/22 08:27:55;;;;;;;7.13;2.63;;;12.00;99.90;;;;;;5031956;28;20484;-65
2023/10/22 08:30:21;;;;;;;6.80;2.20;;;12.00;99.90;;;;;;5032552;28;20044;-65
2023/10/22 08:32:47;;;;;;;8.50;2.60;;;12.00;99.90;;;;;;5015734;28;20045;-65
2023/10/22 08:35:14;;;;;;;8.05;2.15;;;12.10;99.90;;;;;;5024208;28;20112;-65
2023/10/22 08:37:41;;;;;;;6.38;2.50;;;12.10;99.90;;;;;;5023797;28;20148;-65
2023/10/22 08:40:08;;;;;;;8.30;2.05;;;12.20;99.90;;;;;;5032521;28;20099;-65
2023/10/22 08:42:35;;;;;;;8.48;2.80;;;12.20;99.90;;;;;;5015185;28;20040;-68
2023/10/22 08:45:02;;;;;;;7.40;1.73;;;12.20;99.90;;;;;;5050658;28;20099;-65
2023/10/22 08:47:29;;;;;;;10.30;1.80;;;12.30;99.90;;;;;;5031976;28;20083;-65
2023/10/22 08:49:56;;;;;;;5.43;1.52;;;12.30;99.90;;;;;;5031073;28;20045;-66
2023/10/22 08:52:22;;;;;;;7.65;1.58;;;12.20;99.90;;;;;;5031841;28;20057;-65
2023/10/22 08:54:48;;;;;;;5.03;1.55;;;12.40;99.90;;;;;;5011902;28;20045;-65
2023/10/22 08:57:15;;;;;;;4.88;1.33;;;12.30;99.90;;;;;;5027914;28;20050;-65
2023/10/22 08:59:41;;;;;;;3.67;1.50;;;12.40;99.90;;;;;;5012198;28;20120;-65
2023/10/22 09:02:12;;;;;;;5.45;1.58;;;12.30;99.90;;;;;;5017136;28;20171;-65
2023/10/22 09:04:39;;;;;;;7.22;2.30;;;12.40;99.90;;;;;;5014102;28;20040;-66
2023/10/22 09:07:04;;;;;;;4.60;1.70;;;12.40;99.90;;;;;;5030995;28;20056;-65
2023/10/22 09:09:34;;;;;;;5.55;1.52;;;12.40;99.90;;;;;;5031641;28;20044;-65
2023/10/22 09:12:00;;;;;;;5.38;1.58;;;12.40;99.90;;;;;;5031907;28;20037;-65
2023/10/22 09:14:26;;;;;;;8.88;1.30;;;12.50;99.90;;;;;;5011317;28;20055;-65
2023/10/22 09:16:52;;;;;;;2.67;0.93;;;12.50;99.90;;;;;;5021164;28;20033;-65
2023/10/22 09:19:37;;;;;;;8.77;1.70;;;12.60;99.90;;;;;;5015355;28;20060;-65
2023/10/22 09:22:06;;;;;;;5.18;1.17;;;12.50;99.90;;;;;;5010427;28;20138;-65
2023/10/22 09:24:34;;;;;;;4.00;1.23;;;12.60;99.90;;;;;;5031399;28;20390;-65
2023/10/22 09:27:00;;;;;;;4.68;1.55;;;12.70;99.90;;;;;;5026272;28;20081;-65
2023/10/22 09:29:26;;;;;;;6.20;1.02;;;12.80;99.90;;;;;;5049688;28;20490;-65
2023/10/22 09:31:54;;;;;;;3.75;1.20;;;12.80;99.90;;;;;;5048097;28;20482;-65
2023/10/22 09:34:25;;;;;;;3.40;1.05;;;12.90;99.90;;;;;;5035493;28;20045;-66
2023/10/22 09:36:52;;;;;;;4.63;1.95;;;13.00;99.90;;;;;;5026190;28;20137;-65
2023/10/22 09:39:39;;;;;;;4.13;1.23;;;13.00;99.90;;;;;;5044222;28;20045;-65
2023/10/22 09:42:06;;;;;;;4.95;1.17;;;13.00;99.90;;;;;;5023545;28;20106;-65
2023/10/22 09:44:33;;;;;;;2.92;1.20;;;13.00;99.90;;;;;;5014317;28;20049;-64
2023/10/22 09:47:05;;;;;;;4.35;1.00;;;13.00;99.90;;;;;;5031411;28;20044;-64
2023/10/22 09:49:33;;;;;;;9.25;1.23;;;13.10;99.90;;;;;;5021938;28;20045;-64
2023/10/22 09:52:00;;;;;;;3.85;1.27;;;13.00;99.90;;;;;;5010832;28;20096;-63
2023/10/22 09:54:37;;;;;;;5.30;1.30;;;12.90;99.90;;;;;;5026225;28;20552;-63
2023/10/22 09:57:08;;;;;;;4.63;1.10;;;12.80;99.90;;;;;;5022933;28;20041;-65
2023/10/22 09:59:35;;;;;;;4.32;1.10;;;12.60;99.90;;;;;;5025317;28;20041;-63
2023/10/22 10:02:01;;;;;;;4.38;1.33;;;12.60;99.90;;;;;;5029496;28;20438;-63
2023/10/22 10:04:30;;;;;;;3.55;0.95;;;12.50;99.90;;;;;;5026931;28;20040;-68
2023/10/22 10:06:57;;;;;;;3.58;1.00;;;12.40;99.90;;;;;;5027418;28;20124;-67
2023/10/22 10:09:24;;;;;;;3.22;1.27;;;12.40;99.90;;;;;;5031144;28;20044;-64
2023/10/22 10:11:51;;;;;;;4.20;1.13;;;12.30;99.90;;;;;;5024773;28;20042;-66
2023/10/22 10:14:42;;;;;;;7.97;1.38;;;12.30;99.90;;;;;;5030319;28;20045;-66
2023/10/22 10:17:08;;;;;;;5.80;1.30;;;12.40;99.90;;;;;;5014848;28;20048;-64
2023/10/22 10:19:34;;;;;;;3.25;0.80;;;12.50;99.90;;;;;;5030637;28;20048;-63
2023/10/22 10:22:00;;;;;;;4.95;1.15;;;12.60;99.90;;;;;;5030816;28;20179;-64
2023/10/22 10:24:31;;;;;;;5.13;1.00;;;12.80;99.90;;;;;;5030587;28;20045;-64
2023/10/22 10:26:57;;;;;;;7.50;1.23;;;12.90;99.90;;;;;;5011166;28;20099;-64
2023/10/22 10:29:32;;;;;;;3.80;1.20;;;12.90;99.90;;;;;;5026749;28;20040;-64
2023/10/22 10:32:13;;;;;;;4.78;1.35;;;13.00;99.90;;;;;;5024572;28;20490;-63
2023/10/22 10:34:44;;;;;;;5.93;1.67;;;13.00;99.90;;;;;;5029894;28;20128;-64
2023/10/22 10:37:18;;;;;;;5.47;1.17;;;12.90;99.90;;;;;;5033924;28;20073;-65
2023/10/22 10:39:47;;;;;;;6.28;1.30;;;13.00;99.90;;;;;;5014376;28;20049;-63
2023/10/22 10:42:14;;;;;;;6.20;1.40;;;13.00;99.90;;;;;;5024548;28;20157;-66
2023/10/22 10:44:58;;;;;;;5.40;1.23;;;13.00;99.90;;;;;;5047974;28;20055;-65
2023/10/22 10:47:33;;;;;;;3.45;0.98;;;13.10;99.90;;;;;;5011056;28;20434;-66
2023/10/22 10:50:17;;;;;;;2.65;0.95;;;13.10;99.90;;;;;;5009834;28;20442;-65
2023/10/22 10:52:44;;;;;;;5.17;1.13;;;13.20;99.90;;;;;;5010911;28;20507;-66
2023/10/22 10:55:10;;;;;;;5.18;0.80;;;13.20;99.90;;;;;;5011653;28;20138;-65
2023/10/22 10:57:38;;;;;;;3.80;1.10;;;13.20;99.90;;;;;;5045052;28;20401;-65
2023/10/22 11:00:05;;;;;;;3.13;0.80;;;13.30;99.90;;;;;;5014261;28;20045;-65
2023/10/22 11:02:44;;;;;;;6.40;1.27;;;13.40;99.90;;;;;;5019090;28;20486;-65
2023/10/22 11:05:10;;;;;;;3.17;1.15;;;13.50;99.90;;;;;;5031231;28;20397;-64
2023/10/22 11:07:42;;;;;;;2.80;0.98;;;13.70;99.90;;;;;;5029958;28;20044;-65
2023/10/22 11:10:16;;;;;;;2.80;0.90;;;13.70;99.90;;;;;;5015894;28;20071;-64
2023/10/22 11:12:43;;;;;;;2.78;1.02;;;13.70;99.90;;;;;;5032381;28;20040;-65
2023/10/22 11:15:10;;;;;;;4.22;0.80;;;13.70;99.90;;;;;;5034490;28;20126;-65
2023/10/22 11:17:44;;;;;;;2.92;0.90;;;13.80;99.90;;;;;;5013034;28;20114;-65
2023/10/22 11:20:13;;;;;;;2.55;0.90;;;13.70;99.90;;;;;;5016094;28;20127;-65
2023/10/22 11:22:39;;;;;;;3.72;1.00;;;13.60;99.90;;;;;;5050534;28;20084;-64
2023/10/22 11:25:09;;;;;;;2.88;0.95;;;13.60;99.90;;;;;;5034069;28;20045;-65
2023/10/22 11:27:39;;;;;;;3.70;1.00;;;13.60;99.90;;;;;;5033862;28;20048;-65
2023/10/22 11:30:06;;;;;;;3.05;0.63;;;13.60;99.90;;;;;;5034294;28;20060;-65
2023/10/22 11:32:34;;;;;;;5.60;0.90;;;13.70;99.90;;;;;;5034203;28;20047;-65
2023/10/22 11:35:04;;;;;;;2.58;0.80;;;13.70;99.90;;;;;;5034505;28;20101;-66
2023/10/22 11:37:36;;;;;;;3.90;0.88;;;13.70;99.90;;;;;;5028566;28;20041;-65
2023/10/22 11:40:22;;;;;;;3.05;0.60;;;13.70;99.90;;;;;;5047843;28;20092;-66
2023/10/22 11:42:47;;;;;;;3.22;0.80;;;13.70;99.90;;;;;;4997579;28;20038;-65
2023/10/22 11:45:13;;;;;;;2.58;1.05;;;13.50;99.90;;;;;;5031482;28;20041;-65
2023/10/22 11:47:39;;;;;;;2.20;1.05;;;13.60;99.90;;;;;;5047112;28;20502;-65
2023/10/22 11:50:05;;;;;;;1.67;0.50;;;13.50;99.90;;;;;;5032090;28;20041;-65
2023/10/22 11:52:47;;;;;;;2.03;0.52;;;13.50;99.90;;;;;;5031190;28;20512;-65
2023/10/22 11:55:13;;;;;;;3.10;0.82;;;13.50;99.90;;;;;;5014659;28;20490;-64
2023/10/22 11:57:39;;;;;;;1.75;0.60;;;13.50;99.90;;;;;;5030075;28;20068;-64
2023/10/22 12:00:11;;;;;;;2.33;0.73;;;13.60;99.90;;;;;;5013870;28;20045;-65
2023/10/22 12:02:39;;;;;;;3.42;0.93;;;13.60;99.90;;;;;;5014950;28;20449;-65
2023/10/22 12:05:05;;;;;;;3.33;0.90;;;13.60;99.90;;;;;;5026001;28;20044;-65
2023/10/22 12:07:31;;;;;;;1.92;0.60;;;13.50;99.90;;;;;;5019144;28;20046;-66
2023/10/22 12:09:58;;;;;;;2.63;0.88;;;13.60;99.90;;;;;;5021698;28;20405;-66
2023/10/22 12:12:24;;;;;;;3.65;0.90;;;13.60;99.90;;;;;;5032601;28;20098;-65
2023/10/22 12:14:49;;;;;;;4.55;1.05;;;13.50;99.90;;;;;;5017077;28;20076;-65
2023/10/22 12:17:16;;;;;;;2.03;0.60;;;13.60;99.90;;;;;;5051667;28;20138;-66
2023/10/22 12:19:42;;;;;;;3.15;0.77;;;13.60;99.90;;;;;;5032330;28;20091;-64
2023/10/22 12:22:07;;;;;;;4.28;0.80;;;13.60;99.90;;;;;;5030622;28;20033;-65
2023/10/22 12:24:33;;;;;;;3.15;0.90;;;13.70;99.90;;;;;;5034975;28;20048;-64
2023/10/22 12:26:59;;;;;;;1.80;0.60;;;13.70;99.90;;;;;;5025458;28;20049;-63
2023/10/22 12:29:25;;;;;;;5.88;0.88;;;13.70;99.90;;;;;;5013484;28;20099;-64
2023/10/22 12:31:51;;;;;;;2.55;0.90;;;13.60;99.90;;;;;;5012643;28;20490;-64
2023/10/22 12:34:17;;;;;;;2.90;0.80;;;13.50;99.90;;;;;;5024537;28;20051;-65
2023/10/22 12:36:44;;;;;;;4.30;1.10;;;13.40;99.90;;;;;;5029417;28;20041;-64
2023/10/22 12:39:10;;;;;;;3.40;0.80;;;13.40;99.90;;;;;;5032105;28;20041;-65
2023/10/22 12:41:36;;;;;;;2.85;0.82;;;13.30;99.90;;;;;;5045450;28;20111;-64
2023/10/22 12:44:03;;;;;;;4.78;1.10;;;13.30;99.90;;;;;;5024256;28;20494;-64
2023/10/22 12:46:29;;;;;;;4.43;1.00;;;13.30;99.90;;;;;;5032005;28;20049;-64